createdAt,value
2023-09-28T00:04:10.660Z,76.72
2023-09-28T00:09:13.928Z,76.83
2023-09-28T00:14:17.168Z,77.04
2023-09-28T00:19:20.453Z,77.54
2023-09-28T00:24:25.720Z,77.50
2023-09-28T00:29:29.125Z,77.71
2023-09-28T00:34:32.334Z,77.74
2023-09-28T00:39:37.174Z,77.74
2023-09-28T00:44:40.395Z,77.96
2023-09-28T00:49:45.530Z,78.47
2023-09-28T00:54:51.206Z,78.53
2023-09-28T00:59:55.754Z,78.46
2023-09-28T01:04:59.279Z,77.93
2023-09-28T01:10:02.513Z,78.08
2023-09-28T01:15:12.470Z,78.39
2023-09-28T01:20:20.053Z,78.68
2023-09-28T01:25:23.665Z,78.91
2023-09-28T01:30:26.965Z,78.97
2023-09-28T01:35:31.514Z,78.90
2023-09-28T01:40:34.745Z,78.86
2023-09-28T01:45:38.349Z,79.26
2023-09-28T01:50:41.579Z,79.69
2023-09-28T01:55:44.884Z,79.66
2023-09-28T02:00:48.196Z,80.22
2023-09-28T02:05:51.534Z,79.86
2023-09-28T02:10:54.933Z,79.92
2023-09-28T02:15:58.433Z,79.94
2023-09-28T02:21:01.840Z,80.06
2023-09-28T02:26:09.329Z,79.96
2023-09-28T02:31:12.986Z,80.19
2023-09-28T02:36:16.531Z,80.32
2023-09-28T02:41:21.873Z,80.34
2023-09-28T02:46:27.167Z,80.58
2023-09-28T02:51:30.542Z,80.32
2023-09-28T02:56:33.750Z,80.41
2023-09-28T03:01:36.970Z,80.56
2023-09-28T03:06:40.775Z,80.33
2023-09-28T03:11:44.077Z,80.29
2023-09-28T03:16:47.419Z,80.57
2023-09-28T03:21:50.800Z,80.58
2023-09-28T03:27:07.998Z,80.64
2023-09-28T03:32:13.147Z,80.88
2023-09-28T03:37:20.283Z,80.83
2023-09-28T03:42:23.388Z,80.92
2023-09-28T03:47:26.966Z,80.85
2023-09-28T03:52:31.445Z,81.43
2023-09-28T03:57:34.685Z,81.49
2023-09-28T04:02:38.390Z,81.57
2023-09-28T04:07:43.265Z,81.60
2023-09-28T04:12:46.536Z,81.22
2023-09-28T04:17:49.847Z,80.98
2023-09-28T04:22:53.555Z,80.94
2023-09-28T04:27:57.293Z,80.88
2023-09-28T04:33:00.624Z,81.47
2023-09-28T04:38:04.657Z,81.46
2023-09-28T04:43:07.933Z,81.60
2023-09-28T04:48:11.247Z,81.57
2023-09-28T04:53:15.029Z,81.54
2023-09-28T04:58:18.787Z,81.88
2023-09-28T05:03:21.959Z,81.77
2023-09-28T05:08:25.636Z,81.73
2023-09-28T05:13:33.062Z,81.56
2023-09-28T05:18:39.434Z,81.68
2023-09-28T05:23:43.714Z,81.24
2023-09-28T05:28:46.995Z,81.57
2023-09-28T05:33:51.635Z,81.36
2023-09-28T05:38:54.836Z,81.17
2023-09-28T05:43:58.053Z,80.81
2023-09-28T05:49:01.247Z,80.93
2023-09-28T05:54:05.057Z,80.88
2023-09-28T05:59:08.816Z,80.78
2023-09-28T06:04:13.413Z,80.42
2023-09-28T06:09:16.644Z,80.11
2023-09-28T06:14:21.196Z,80.15
2023-09-28T06:19:24.609Z,79.92
2023-09-28T06:24:27.779Z,79.68
2023-09-28T06:29:33.615Z,79.06
2023-09-28T06:34:36.865Z,78.75
2023-09-28T06:39:40.201Z,78.40
2023-09-28T06:44:43.392Z,77.83
2023-09-28T06:49:46.501Z,77.43
2023-09-28T06:54:49.701Z,76.98
2023-09-28T06:59:52.914Z,76.72
2023-09-28T07:04:57.376Z,76.12
2023-09-28T07:10:00.873Z,75.81
2023-09-28T07:15:05.719Z,75.50
2023-09-28T07:20:09.659Z,75.13
2023-09-28T07:25:12.877Z,74.62
2023-09-28T07:30:20.486Z,74.07
2023-09-28T07:35:24.004Z,73.67
2023-09-28T07:40:36.531Z,73.06
2023-09-28T07:45:51.316Z,72.43
2023-09-28T07:50:55.207Z,72.25
2023-09-28T07:55:59.119Z,71.79
2023-09-28T08:01:03.210Z,71.41
2023-09-28T08:06:06.472Z,71.14
2023-09-28T08:11:09.824Z,70.25
2023-09-28T08:16:13.534Z,69.87
2023-09-28T08:21:16.847Z,69.43
2023-09-28T08:26:20.114Z,68.93
2023-09-28T08:31:23.463Z,68.69
2023-09-28T08:36:30.897Z,68.36
2023-09-28T08:41:48.650Z,67.74
2023-09-28T08:46:59.201Z,67.44
2023-09-28T08:52:04.637Z,66.62
2023-09-28T08:57:08.313Z,66.04
2023-09-28T09:02:12.204Z,65.61
2023-09-28T09:07:17.077Z,65.53
2023-09-28T09:12:20.749Z,64.65
2023-09-28T09:17:37.090Z,64.34
2023-09-28T09:22:53.441Z,63.92
2023-09-28T09:28:03.760Z,62.96
2023-09-28T09:33:10.207Z,61.81
2023-09-28T09:38:14.094Z,60.57
2023-09-28T09:43:17.341Z,59.26
2023-09-28T09:48:22.888Z,58.64
2023-09-28T09:53:28.270Z,57.38
2023-09-28T09:58:40.412Z,56.69
2023-09-28T10:03:52.852Z,55.01
2023-09-28T10:08:56.802Z,53.92
2023-09-28T10:14:01.094Z,52.31
2023-09-28T10:19:08.130Z,51.69
2023-09-28T10:24:13.789Z,50.33
2023-09-28T10:29:30.569Z,49.52
2023-09-28T10:34:33.818Z,48.49
2023-09-28T10:39:37.147Z,49.08
2023-09-28T10:44:58.750Z,48.12
2023-09-28T10:50:06.252Z,47.79
2023-09-28T10:55:10.097Z,46.78
2023-09-28T11:00:14.241Z,46.67
2023-09-28T11:05:21.746Z,47.04
2023-09-28T11:10:25.758Z,46.12
2023-09-28T11:15:31.167Z,45.76
2023-09-28T11:20:34.581Z,44.63
2023-09-28T11:25:46.046Z,43.97
2023-09-28T11:31:10.183Z,42.90
2023-09-28T11:36:23.427Z,42.40
2023-09-28T11:41:28.029Z,41.92
2023-09-28T11:46:33.630Z,42.44
2023-09-28T11:51:39.392Z,43.10
2023-09-28T11:56:46.575Z,42.72
2023-09-28T12:01:53.702Z,42.09
2023-09-28T12:06:57.173Z,42.26
2023-09-28T12:12:00.558Z,42.53
2023-09-28T12:17:05.353Z,41.63
2023-09-28T12:22:08.954Z,42.09
2023-09-28T12:27:13.624Z,42.04
2023-09-28T12:32:16.852Z,41.66
2023-09-28T12:37:20.043Z,41.86
2023-09-28T12:42:25.991Z,42.25
2023-09-28T12:47:29.194Z,41.08
2023-09-28T12:52:33.123Z,41.04
2023-09-28T12:57:36.863Z,40.90
2023-09-28T13:02:40.638Z,40.72
2023-09-28T13:07:44.093Z,40.90
2023-09-28T13:12:47.829Z,41.12
2023-09-28T13:17:51.140Z,39.84
2023-09-28T13:22:58.878Z,39.82
2023-09-28T13:28:02.587Z,40.08
2023-09-28T13:33:08.226Z,40.19
2023-09-28T13:38:11.818Z,39.94
2023-09-28T13:43:15.252Z,40.21
2023-09-28T13:48:18.491Z,39.69
2023-09-28T13:53:22.038Z,38.96
2023-09-28T13:58:26.448Z,39.24
2023-09-28T14:03:31.229Z,39.10
2023-09-28T14:08:35.420Z,39.19
2023-09-28T14:13:38.904Z,39.01
2023-09-28T14:18:42.366Z,38.83
2023-09-28T14:23:46.035Z,39.10
2023-09-28T14:28:49.458Z,39.29
2023-09-28T14:33:52.961Z,39.09
2023-09-28T14:38:56.378Z,39.40
2023-09-28T14:44:00.816Z,39.78
2023-09-28T14:49:04.844Z,39.29
2023-09-28T14:54:08.271Z,39.60
2023-09-28T14:59:11.943Z,39.78
2023-09-28T15:04:15.452Z,39.99
2023-09-28T15:09:18.537Z,40.04
2023-09-28T15:14:21.854Z,40.33
2023-09-28T15:19:25.022Z,40.22
2023-09-28T15:24:28.354Z,40.38
2023-09-28T15:29:31.607Z,41.04
2023-09-28T15:34:34.861Z,41.65
2023-09-28T15:39:38.476Z,42.28
2023-09-28T15:44:41.720Z,42.17
2023-09-28T15:49:45.746Z,42.87
2023-09-28T15:54:48.917Z,43.27
2023-09-28T15:59:52.258Z,44.32
2023-09-28T16:04:56.356Z,45.06
2023-09-28T16:09:59.583Z,45.40
2023-09-28T16:15:03.522Z,46.01
2023-09-28T16:20:08.310Z,46.01
2023-09-28T16:25:11.647Z,46.56
2023-09-28T16:30:14.967Z,46.81
2023-09-28T16:35:18.287Z,47.14
2023-09-28T16:40:22.504Z,47.48
2023-09-28T16:45:25.710Z,47.87
2023-09-28T16:50:30.006Z,48.04
2023-09-28T16:55:35.621Z,48.12
2023-09-28T17:00:38.919Z,48.61
2023-09-28T17:05:42.540Z,49.24
2023-09-28T17:10:46.053Z,49.65
2023-09-28T17:15:50.253Z,50.15
2023-09-28T17:20:53.621Z,51.19
2023-09-28T17:25:57.143Z,52.26
2023-09-28T17:31:00.237Z,53.58
2023-09-28T17:36:03.754Z,54.72
2023-09-28T17:41:12.022Z,54.87
2023-09-28T17:46:15.215Z,55.82
2023-09-28T17:51:18.396Z,57.41
2023-09-28T17:56:21.844Z,58.67
2023-09-28T18:01:25.132Z,61.06
2023-09-28T18:06:28.330Z,61.10
2023-09-28T18:11:31.650Z,59.60
2023-09-28T18:16:38.202Z,60.38
2023-09-28T18:21:41.477Z,60.29
2023-09-28T18:26:44.972Z,60.76
2023-09-28T18:31:48.401Z,61.01
2023-09-28T18:36:51.567Z,62.17
2023-09-28T18:41:54.798Z,63.54
2023-09-28T18:46:58.902Z,63.90
2023-09-28T18:52:02.790Z,64.10
2023-09-28T18:57:07.229Z,65.45
2023-09-28T19:02:10.622Z,66.56
2023-09-28T19:07:14.316Z,66.79
2023-09-28T19:12:17.720Z,67.72
2023-09-28T19:17:21.049Z,67.12
2023-09-28T19:22:24.452Z,66.57
2023-09-28T19:27:37.870Z,66.40
2023-09-28T19:32:43.995Z,66.88
2023-09-28T19:37:47.381Z,67.85
2023-09-28T19:42:50.713Z,69.08
2023-09-28T19:47:54.171Z,69.85
2023-09-28T19:52:57.647Z,70.10
2023-09-28T19:58:01.135Z,69.89
2023-09-28T20:03:05.866Z,68.90
2023-09-28T20:08:10.243Z,68.88
2023-09-28T20:13:13.426Z,68.61
2023-09-28T20:18:17.056Z,68.04
2023-09-28T20:23:20.496Z,67.96
2023-09-28T20:28:24.320Z,68.07
2023-09-28T20:33:27.932Z,68.20
2023-09-28T20:38:32.021Z,68.40
2023-09-28T20:43:35.246Z,68.53
2023-09-28T20:48:38.628Z,68.32
2023-09-28T20:53:42.246Z,68.20
2023-09-28T20:58:45.703Z,68.62
2023-09-28T21:03:50.299Z,69.06
2023-09-28T21:08:53.833Z,69.10
2023-09-28T21:13:57.444Z,69.39
2023-09-28T21:19:01.166Z,69.63
2023-09-28T21:24:06.754Z,69.60
2023-09-28T21:29:09.970Z,69.36
2023-09-28T21:34:13.480Z,69.41
2023-09-28T21:39:16.582Z,69.78
2023-09-28T21:44:19.916Z,70.71
2023-09-28T21:49:23.209Z,70.65
2023-09-28T21:54:27.683Z,70.42
2023-09-28T21:59:30.864Z,70.38
2023-09-28T22:04:35.325Z,70.63
2023-09-28T22:09:38.502Z,71.73
2023-09-28T22:14:41.864Z,72.86
2023-09-28T22:19:45.116Z,72.82
2023-09-28T22:24:48.343Z,72.26
2023-09-28T22:29:51.684Z,72.36
2023-09-28T22:34:54.961Z,72.26
2023-09-28T22:40:02.801Z,72.86
2023-09-28T22:45:12.017Z,73.42
2023-09-28T22:50:16.116Z,73.71
2023-09-28T22:55:19.389Z,73.40
2023-09-28T23:00:22.768Z,73.64
2023-09-28T23:05:26.337Z,74.05
2023-09-28T23:10:30.523Z,73.89
2023-09-28T23:15:34.786Z,74.14
2023-09-28T23:20:39.653Z,74.14
2023-09-28T23:25:44.074Z,75.21
2023-09-28T23:30:49.626Z,75.54
2023-09-28T23:35:52.864Z,74.75
2023-09-28T23:40:59.814Z,75.61
2023-09-28T23:46:04.355Z,76.37
2023-09-28T23:51:09.094Z,76.68
2023-09-28T23:56:14.134Z,76.69
